KPIM/PIM METAR and TAF weather

Enter ICAO airport designator
Station Type Date Time Source
KPIM METAR 2019/10/20 18:35 UTC NOAA

KPIM 201835Z AUTO 32004KT 10SM OVC012 19/15 A2995 RMK AO2 T01920152


Station Type Date Time Source
KPIM Decoded METAR 2019/10/20 18:35 UTC NOAA

Station name not available
Oct 20, 2019 - 02:35 PM EDT / 2019.10.20 1835 UTC
Wind: from the NW (320 degrees) at 5 MPH (4 KT):0
Visibility: 10 mile(s):0
Sky conditions: overcast
Temperature: 66.6 F (19.2 C)
Dew Point: 59.4 F (15.2 C)
Relative Humidity: 77%
Pressure (altimeter): 29.95 in. Hg (1014 hPa)
ob: KPIM 201835Z AUTO 32004KT 10SM OVC012 19/15 A2995 RMK AO2 T01920152
cycle: 18

Station Type Date Time Source
KPIM TAF UTC NOAA

Error!

Example: see airport list